Time;durP1;ratioP1;P1;durP2;ratioP2;P2;SDS_P1;SDS_P2;PMS_P1;PMS_P2;Temp;Humidity;BMP_temperature;BMP_pressure;BME280_temperature;BME280_humidity;BME280_pressure;Samples;Min_cycle;Max_cycle;Signal;HPM_P1;HPM_P2
2023/06/29 00:01:36;;;;;;;10.48;9.32;;;17.20;99.90;;;;;;4978558;28;20301;-77
2023/06/29 00:04:26;;;;;;;12.05;9.43;;;17.10;99.90;;;;;;4997120;28;20301;-77
2023/06/29 00:07:16;;;;;;;9.80;8.57;;;17.20;99.90;;;;;;4994537;28;20298;-77
2023/06/29 00:10:07;;;;;;;11.32;9.05;;;17.20;99.90;;;;;;4987801;28;20239;-77
2023/06/29 00:12:57;;;;;;;11.90;9.13;;;17.10;99.90;;;;;;4989299;28;20219;-77
2023/06/29 00:15:46;;;;;;;13.00;9.02;;;17.00;99.90;;;;;;4977144;28;20575;-76
2023/06/29 00:18:36;;;;;;;13.23;8.88;;;17.10;99.90;;;;;;4986055;28;20230;-76
2023/06/29 00:21:28;;;;;;;10.40;8.65;;;17.10;99.90;;;;;;4979339;28;20230;-76
2023/06/29 00:24:19;;;;;;;10.18;8.80;;;17.10;99.90;;;;;;4999718;28;20276;-77
2023/06/29 00:27:08;;;;;;;8.75;7.85;;;17.00;99.90;;;;;;4986404;28;20219;-79
2023/06/29 00:29:57;;;;;;;10.40;8.57;;;17.00;99.90;;;;;;4977405;28;20210;-78
2023/06/29 00:32:47;;;;;;;9.80;8.50;;;17.10;99.90;;;;;;4989851;28;20243;-77
2023/06/29 00:35:37;;;;;;;9.55;7.95;;;17.00;99.90;;;;;;4974663;28;20246;-74
2023/06/29 00:38:25;;;;;;;9.73;8.15;;;17.00;99.90;;;;;;4987151;28;20261;-77
2023/06/29 00:41:18;;;;;;;9.35;8.35;;;17.00;99.90;;;;;;4986705;28;20227;-77
2023/06/29 00:44:09;;;;;;;10.02;8.48;;;17.00;99.90;;;;;;4986287;28;20226;-79
2023/06/29 00:46:59;;;;;;;10.40;8.27;;;17.00;99.90;;;;;;4996580;28;20245;-78
2023/06/29 00:49:49;;;;;;;9.45;8.45;;;16.90;99.90;;;;;;5006839;28;20218;-78
2023/06/29 00:52:39;;;;;;;10.00;8.40;;;16.80;99.90;;;;;;5001584;28;20289;-78
2023/06/29 00:55:28;;;;;;;9.65;8.38;;;16.90;99.90;;;;;;5002414;28;20254;-76
2023/06/29 00:58:19;;;;;;;8.77;7.88;;;16.90;99.90;;;;;;4976687;28;20231;-77
2023/06/29 01:01:09;;;;;;;8.40;7.60;;;17.00;99.90;;;;;;4972194;28;20395;-77
2023/06/29 01:03:59;;;;;;;9.25;7.80;;;16.90;99.90;;;;;;4984505;28;20222;-76
2023/06/29 01:06:56;;;;;;;12.40;8.15;;;17.00;99.90;;;;;;4993798;28;20737;-76
2023/06/29 01:09:47;;;;;;;9.00;7.63;;;16.90;99.90;;;;;;4970873;28;20254;-78
2023/06/29 01:12:36;;;;;;;10.75;8.13;;;16.70;99.90;;;;;;4995252;28;20365;-78
2023/06/29 01:15:27;;;;;;;9.27;8.32;;;16.60;99.90;;;;;;4992980;28;20637;-77
2023/06/29 01:18:18;;;;;;;9.32;7.43;;;16.70;99.90;;;;;;4978299;28;20223;-77
2023/06/29 01:21:08;;;;;;;8.32;7.53;;;16.70;99.90;;;;;;4971794;28;20672;-74
2023/06/29 01:24:00;;;;;;;9.85;7.72;;;16.60;99.90;;;;;;4984945;28;20250;-74
2023/06/29 01:26:50;;;;;;;9.48;7.22;;;16.60;99.90;;;;;;4979182;28;20270;-75
2023/06/29 01:29:39;;;;;;;7.82;7.03;;;16.70;99.90;;;;;;4974281;28;20243;-75
2023/06/29 01:32:35;;;;;;;9.60;7.65;;;16.80;99.90;;;;;;4984029;28;20242;-75
2023/06/29 01:35:24;;;;;;;7.07;6.38;;;16.70;99.90;;;;;;4970308;28;20227;-75
2023/06/29 01:38:18;;;;;;;9.25;6.75;;;16.60;99.90;;;;;;4974382;28;20693;-76
2023/06/29 01:41:08;;;;;;;7.40;6.50;;;16.60;99.90;;;;;;4985111;28;20370;-75
2023/06/29 01:44:01;;;;;;;9.40;7.32;;;16.50;99.90;;;;;;4978100;28;20254;-75
2023/06/29 01:46:51;;;;;;;8.60;7.13;;;16.50;99.90;;;;;;4983684;28;21100;-75
2023/06/29 01:49:41;;;;;;;8.07;7.25;;;16.50;99.90;;;;;;4975228;28;20220;-73
2023/06/29 01:52:31;;;;;;;7.80;6.50;;;16.50;99.90;;;;;;4969684;28;20326;-75
2023/06/29 01:55:20;;;;;;;8.20;7.05;;;16.50;99.90;;;;;;4985857;28;20962;-77
2023/06/29 01:58:11;;;;;;;9.63;7.00;;;16.50;99.90;;;;;;4988405;28;20314;-77
2023/06/29 02:01:03;;;;;;;8.57;6.75;;;16.70;99.90;;;;;;4991882;28;20364;-77
2023/06/29 02:03:52;;;;;;;9.00;7.13;;;16.60;99.90;;;;;;4988218;28;21121;-76
2023/06/29 02:06:41;;;;;;;8.73;6.55;;;16.50;99.90;;;;;;4992449;28;20222;-76
2023/06/29 02:09:30;;;;;;;8.15;6.97;;;16.50;99.90;;;;;;4965074;28;20227;-76
2023/06/29 02:12:19;;;;;;;8.60;7.57;;;16.50;99.90;;;;;;4970734;28;20291;-75
2023/06/29 02:15:12;;;;;;;10.95;6.95;;;16.40;99.90;;;;;;4981035;28;20219;-76
2023/06/29 02:18:06;;;;;;;8.90;7.00;;;16.30;99.90;;;;;;4973920;28;20329;-77
2023/06/29 02:20:55;;;;;;;9.38;7.15;;;16.40;99.90;;;;;;4976746;28;20237;-77
2023/06/29 02:23:44;;;;;;;10.13;7.50;;;16.40;99.90;;;;;;4989364;28;20298;-75
2023/06/29 02:26:32;;;;;;;9.20;7.63;;;16.50;99.90;;;;;;4964592;28;20238;-76
2023/06/29 02:29:21;;;;;;;8.43;7.40;;;16.40;99.90;;;;;;4977936;28;20246;-75
2023/06/29 02:32:14;;;;;;;9.73;7.72;;;16.40;99.90;;;;;;4972913;28;20273;-75
2023/06/29 02:35:05;;;;;;;8.68;7.78;;;16.40;99.90;;;;;;4975916;28;20227;-76
2023/06/29 02:37:55;;;;;;;9.02;8.13;;;16.30;99.90;;;;;;4973543;28;20218;-76
2023/06/29 02:40:44;;;;;;;9.40;8.18;;;16.30;99.90;;;;;;4968474;28;20366;-77
2023/06/29 02:43:34;;;;;;;9.75;7.90;;;16.40;99.90;;;;;;4988235;28;20369;-78
2023/06/29 02:46:24;;;;;;;9.23;7.88;;;16.50;99.90;;;;;;4974731;28;20241;-79
2023/06/29 02:49:14;;;;;;;11.10;8.38;;;16.40;99.90;;;;;;4984397;28;20222;-79
2023/06/29 02:52:06;;;;;;;10.32;7.72;;;16.50;99.90;;;;;;4985626;28;20300;-80
2023/06/29 02:54:55;;;;;;;9.65;8.35;;;16.50;99.90;;;;;;4982392;28;20231;-80
2023/06/29 02:57:44;;;;;;;9.30;8.10;;;16.70;99.90;;;;;;4980489;28;20225;-79
2023/06/29 03:00:33;;;;;;;9.02;8.10;;;16.70;99.90;;;;;;4972756;28;20227;-79
2023/06/29 03:03:22;;;;;;;9.82;8.02;;;16.70;99.90;;;;;;4965658;28;20950;-78
2023/06/29 03:06:11;;;;;;;11.98;8.40;;;16.80;99.90;;;;;;4988234;28;20733;-76
2023/06/29 03:09:03;;;;;;;9.75;7.25;;;16.80;99.90;;;;;;4984227;28;20226;-76
2023/06/29 03:11:52;;;;;;;9.68;8.00;;;16.80;99.90;;;;;;4978400;28;20227;-75
2023/06/29 03:14:40;;;;;;;9.90;7.75;;;16.90;99.90;;;;;;4992372;28;21065;-76
2023/06/29 03:17:29;;;;;;;10.68;7.85;;;16.90;99.90;;;;;;4982791;28;20242;-77
2023/06/29 03:20:18;;;;;;;9.02;7.63;;;16.90;99.90;;;;;;4972989;28;20263;-78
2023/06/29 03:23:07;;;;;;;8.65;7.20;;;17.00;99.90;;;;;;4996359;28;20318;-77
2023/06/29 03:25:58;;;;;;;9.43;7.65;;;16.90;99.90;;;;;;4977816;28;20234;-77
2023/06/29 03:28:47;;;;;;;8.20;7.32;;;16.90;99.90;;;;;;4978213;28;20229;-75
2023/06/29 03:31:36;;;;;;;11.07;7.30;;;16.70;99.90;;;;;;4993308;28;20230;-75
2023/06/29 03:34:25;;;;;;;8.85;7.50;;;16.70;99.90;;;;;;4977141;28;20233;-76
2023/06/29 03:37:13;;;;;;;7.43;6.72;;;16.80;99.90;;;;;;4981361;28;20235;-75
2023/06/29 03:40:02;;;;;;;8.30;7.40;;;16.80;99.90;;;;;;4976863;28;20226;-75
2023/06/29 03:42:52;;;;;;;9.00;7.45;;;17.00;99.90;;;;;;4986966;28;20227;-76
2023/06/29 03:45:46;;;;;;;10.90;7.20;;;17.00;99.90;;;;;;4978573;28;20687;-76
2023/06/29 03:48:34;;;;;;;9.20;7.32;;;17.10;99.90;;;;;;4984285;28;20258;-75
2023/06/29 03:51:23;;;;;;;8.55;7.55;;;17.10;99.90;;;;;;4983754;28;20233;-74
2023/06/29 03:54:12;;;;;;;11.93;7.53;;;17.20;99.90;;;;;;4981925;28;20226;-78
2023/06/29 03:57:03;;;;;;;10.93;6.97;;;17.10;99.90;;;;;;4979793;28;20235;-76
2023/06/29 03:59:53;;;;;;;10.82;6.75;;;17.20;99.90;;;;;;4972864;28;20651;-76
2023/06/29 04:02:42;;;;;;;7.68;6.65;;;17.10;99.90;;;;;;4990498;28;20310;-75
2023/06/29 04:05:32;;;;;;;9.32;6.88;;;17.20;99.90;;;;;;4971652;28;20366;-76
2023/06/29 04:08:20;;;;;;;7.05;6.35;;;17.20;99.90;;;;;;4967292;28;20563;-76
2023/06/29 04:11:11;;;;;;;7.57;6.78;;;17.10;99.90;;;;;;4977997;28;20222;-76
2023/06/29 04:14:01;;;;;;;10.77;6.53;;;17.10;99.90;;;;;;4981310;28;20220;-77
2023/06/29 04:16:51;;;;;;;8.57;6.80;;;17.30;99.90;;;;;;4986404;28;20218;-78
2023/06/29 04:20:06;;;;;;;8.50;6.63;;;17.30;99.90;;;;;;4979003;28;20215;-80
2023/06/29 04:22:57;;;;;;;8.73;6.80;;;17.30;99.90;;;;;;4993519;28;20368;-79
2023/06/29 04:25:45;;;;;;;12.68;6.88;;;17.30;99.90;;;;;;4975163;28;20298;-78
2023/06/29 04:28:35;;;;;;;8.85;7.10;;;17.30;99.90;;;;;;4978478;28;20223;-78
2023/06/29 04:31:24;;;;;;;9.32;6.72;;;17.40;99.90;;;;;;4973831;28;20328;-77
2023/06/29 04:34:17;;;;;;;10.85;6.70;;;17.40;99.90;;;;;;4989094;28;20632;-76
2023/06/29 04:37:07;;;;;;;8.82;6.85;;;17.40;99.90;;;;;;4983710;28;20710;-77
2023/06/29 04:39:56;;;;;;;8.30;6.82;;;17.50;99.90;;;;;;5002200;28;20235;-77
2023/06/29 04:42:47;;;;;;;8.93;7.28;;;17.50;99.90;;;;;;4986733;28;20238;-76
2023/06/29 04:45:36;;;;;;;10.98;8.02;;;17.50;99.90;;;;;;4975487;28;20269;-77
2023/06/29 04:48:36;;;;;;;10.80;8.30;;;17.50;99.90;;;;;;4989187;28;20325;-77
2023/06/29 04:51:27;;;;;;;11.18;8.60;;;17.40;99.90;;;;;;4969143;28;20302;-77
2023/06/29 04:54:16;;;;;;;11.38;8.30;;;17.40;99.90;;;;;;4997097;28;20220;-75
2023/06/29 04:57:05;;;;;;;9.90;8.35;;;17.40;99.90;;;;;;4994644;28;20234;-76
2023/06/29 04:59:54;;;;;;;10.13;8.00;;;17.50;99.90;;;;;;4988173;28;20249;-76
2023/06/29 05:02:43;;;;;;;9.63;8.13;;;17.30;99.90;;;;;;4990090;28;20906;-75
2023/06/29 05:05:33;;;;;;;10.00;8.30;;;17.50;99.90;;;;;;4991552;28;20222;-75
2023/06/29 05:08:23;;;;;;;10.65;8.65;;;17.50;99.90;;;;;;4965322;28;20227;-76
2023/06/29 05:11:12;;;;;;;10.40;8.45;;;17.30;99.90;;;;;;4971969;28;20318;-76
2023/06/29 05:14:01;;;;;;;10.45;9.35;;;17.40;99.90;;;;;;4986176;28;20231;-76
2023/06/29 05:16:50;;;;;;;12.13;8.70;;;17.40;99.90;;;;;;4993472;28;20377;-79
2023/06/29 05:19:39;;;;;;;15.70;8.90;;;17.40;99.90;;;;;;4983578;28;20317;-79
2023/06/29 05:22:29;;;;;;;10.77;8.88;;;17.40;99.90;;;;;;4969800;28;20273;-80
2023/06/29 05:25:20;;;;;;;10.52;8.90;;;17.60;99.90;;;;;;4958639;28;20281;-79
2023/06/29 05:28:09;;;;;;;10.35;9.30;;;17.60;99.90;;;;;;4962734;28;20552;-79
2023/06/29 05:30:57;;;;;;;9.85;8.70;;;17.30;99.90;;;;;;4967662;28;20235;-78
2023/06/29 05:33:47;;;;;;;11.60;8.80;;;17.50;99.90;;;;;;4972842;28;20238;-79
2023/06/29 05:36:36;;;;;;;13.43;9.15;;;17.70;99.90;;;;;;4980878;28;20729;-75
2023/06/29 05:39:25;;;;;;;11.70;8.50;;;17.70;99.90;;;;;;4988169;28;20223;-73
2023/06/29 05:42:15;;;;;;;11.50;8.10;;;17.90;99.90;;;;;;4979534;28;20227;-77
2023/06/29 05:45:05;;;;;;;10.73;9.25;;;17.90;99.90;;;;;;4979400;28;20524;-77
2023/06/29 05:47:55;;;;;;;11.23;9.38;;;17.80;99.90;;;;;;4979822;28;20274;-76
2023/06/29 05:50:44;;;;;;;12.13;8.68;;;17.90;99.90;;;;;;4967119;28;20227;-76
2023/06/29 05:53:34;;;;;;;11.02;9.70;;;17.90;99.90;;;;;;4982681;28;20742;-80
2023/06/29 05:56:23;;;;;;;12.18;10.25;;;17.70;99.90;;;;;;4975334;28;21531;-79
2023/06/29 05:59:13;;;;;;;13.02;9.80;;;17.30;99.90;;;;;;4981128;28;20227;-76
2023/06/29 06:02:03;;;;;;;13.70;10.23;;;17.60;99.90;;;;;;4985157;28;20369;-78
2023/06/29 06:04:52;;;;;;;15.20;10.60;;;17.80;99.90;;;;;;4980924;28;20364;-77
2023/06/29 06:07:41;;;;;;;13.48;10.73;;;18.00;99.90;;;;;;4982290;28;20282;-76
2023/06/29 06:10:30;;;;;;;16.52;11.38;;;18.10;99.90;;;;;;4969206;28;20660;-77
2023/06/29 06:13:19;;;;;;;15.07;11.43;;;18.30;99.90;;;;;;4988037;28;20733;-78
2023/06/29 06:16:09;;;;;;;17.05;11.63;;;18.30;99.90;;;;;;4972029;28;21154;-76
2023/06/29 06:19:00;;;;;;;16.35;12.35;;;18.20;99.90;;;;;;4982559;28;20258;-76
2023/06/29 06:21:49;;;;;;;15.95;12.25;;;18.20;99.90;;;;;;4996826;28;20224;-77
2023/06/29 06:24:38;;;;;;;17.30;12.57;;;18.30;99.90;;;;;;4990188;28;20869;-76
2023/06/29 06:27:27;;;;;;;14.63;11.73;;;18.40;99.90;;;;;;4981177;28;20273;-76
2023/06/29 06:30:16;;;;;;;16.17;11.73;;;18.40;99.90;;;;;;4979927;28;20624;-76
2023/06/29 06:33:06;;;;;;;15.55;11.23;;;18.60;99.90;;;;;;4982530;28;20238;-77
2023/06/29 06:35:55;;;;;;;14.40;11.30;;;18.60;99.90;;;;;;4979132;28;20238;-78
2023/06/29 06:38:44;;;;;;;15.23;11.52;;;19.00;99.90;;;;;;4982506;28;20227;-76
2023/06/29 06:41:38;;;;;;;12.35;10.30;;;19.20;99.90;;;;;;4963691;28;21008;-78
2023/06/29 06:44:27;;;;;;;10.50;9.40;;;19.40;99.90;;;;;;4976413;28;20254;-77
2023/06/29 06:47:16;;;;;;;12.02;9.65;;;19.60;99.90;;;;;;4993969;28;20333;-75
2023/06/29 06:50:07;;;;;;;10.38;9.27;;;19.90;99.90;;;;;;4986039;28;20238;-75
2023/06/29 06:52:56;;;;;;;10.10;8.25;;;19.90;99.90;;;;;;4985900;28;20268;-77
2023/06/29 06:55:45;;;;;;;11.95;9.18;;;19.80;99.90;;;;;;4980671;28;20912;-76
2023/06/29 06:58:35;;;;;;;10.35;8.32;;;19.80;99.90;;;;;;4978675;28;20320;-75
2023/06/29 07:01:24;;;;;;;11.13;8.50;;;20.10;99.90;;;;;;4995609;28;20231;-76
2023/06/29 07:04:13;;;;;;;15.07;9.30;;;20.50;99.90;;;;;;4982607;28;20226;-79
2023/06/29 07:07:06;;;;;;;13.10;9.43;;;20.60;99.90;;;;;;4989481;28;20233;-77
2023/06/29 07:09:55;;;;;;;11.02;8.88;;;20.70;99.90;;;;;;4984833;28;20226;-78
2023/06/29 07:12:44;;;;;;;14.45;9.20;;;20.60;99.90;;;;;;4975600;28;20226;-76
2023/06/29 07:15:33;;;;;;;12.38;9.10;;;21.40;99.90;;;;;;4982765;28;20337;-78
2023/06/29 07:18:22;;;;;;;10.60;9.38;;;22.40;99.90;;;;;;4972339;28;20227;-78
2023/06/29 07:21:10;;;;;;;10.93;8.43;;;22.20;99.90;;;;;;4993866;28;20238;-78
2023/06/29 07:24:04;;;;;;;9.00;7.75;;;22.20;99.90;;;;;;4980521;28;20227;-78
2023/06/29 07:26:56;;;;;;;9.50;8.05;;;22.40;99.90;;;;;;4990071;28;20218;-77
2023/06/29 07:29:46;;;;;;;11.77;8.10;;;22.70;99.90;;;;;;4975124;28;20214;-77
2023/06/29 07:32:35;;;;;;;8.35;7.55;;;23.00;99.90;;;;;;4993981;28;20733;-78
2023/06/29 07:35:24;;;;;;;8.82;6.97;;;23.60;99.90;;;;;;4995975;28;20233;-77
2023/06/29 07:38:13;;;;;;;9.02;7.05;;;23.90;99.90;;;;;;4987795;28;20322;-77
2023/06/29 07:41:05;;;;;;;8.18;6.68;;;24.40;99.90;;;;;;4983877;28;20254;-78
2023/06/29 07:43:55;;;;;;;7.18;5.90;;;24.70;99.90;;;;;;4983189;28;20222;-78
2023/06/29 07:46:44;;;;;;;7.28;5.93;;;25.00;99.90;;;;;;4993583;28;20234;-78
2023/06/29 07:49:33;;;;;;;12.57;6.47;;;25.30;99.90;;;;;;4986349;28;20230;-78
2023/06/29 07:52:23;;;;;;;8.02;6.15;;;25.70;99.90;;;;;;4984312;28;21071;-78
2023/06/29 07:55:11;;;;;;;7.60;5.80;;;26.10;99.90;;;;;;4996546;28;20666;-77
2023/06/29 07:58:02;;;;;;;8.20;5.90;;;26.20;99.90;;;;;;4995354;28;20916;-76
2023/06/29 08:00:54;;;;;;;7.38;5.43;;;26.50;99.90;;;;;;4979104;28;20713;-76
2023/06/29 08:03:44;;;;;;;6.93;5.22;;;26.90;99.90;;;;;;4979238;28;20238;-77
2023/06/29 08:06:49;;;;;;;8.15;5.38;;;27.30;99.90;;;;;;4985175;28;20781;-72
2023/06/29 08:09:40;;;;;;;6.97;5.55;;;27.00;99.90;;;;;;4968477;28;20235;-74
2023/06/29 08:12:28;;;;;;;8.10;5.40;;;27.30;99.90;;;;;;4978074;28;20224;-74
2023/06/29 08:15:18;;;;;;;6.05;4.88;;;27.40;99.90;;;;;;4983085;28;20235;-72
2023/06/29 08:18:07;;;;;;;5.68;5.03;;;27.50;99.90;;;;;;4987953;28;20250;-73
2023/06/29 08:20:56;;;;;;;8.48;5.00;;;27.90;99.90;;;;;;4971017;28;20553;-73
2023/06/29 08:23:46;;;;;;;6.78;4.80;;;28.00;99.90;;;;;;4978725;28;20289;-74
2023/06/29 08:26:35;;;;;;;8.85;6.38;;;28.10;99.90;;;;;;4989073;28;20215;-72
2023/06/29 08:29:24;;;;;;;6.63;4.75;;;28.50;99.90;;;;;;4972889;28;20223;-73
2023/06/29 08:32:15;;;;;;;8.48;4.75;;;28.50;99.90;;;;;;4975322;28;20230;-73
2023/06/29 08:35:04;;;;;;;6.72;4.80;;;28.60;99.90;;;;;;4987648;28;20223;-74
2023/06/29 08:37:53;;;;;;;7.65;4.65;;;29.00;99.90;;;;;;4982516;28;21038;-75
2023/06/29 08:40:46;;;;;;;5.68;4.78;;;29.00;99.90;;;;;;4974264;28;20229;-75
2023/06/29 08:43:35;;;;;;;5.32;4.68;;;29.20;99.90;;;;;;4984449;28;20243;-75
2023/06/29 08:46:25;;;;;;;8.07;4.72;;;29.50;99.90;;;;;;4983305;28;20266;-75
2023/06/29 08:49:16;;;;;;;4.82;4.40;;;29.60;99.90;;;;;;4985484;28;20736;-81
2023/06/29 08:52:07;;;;;;;7.97;4.38;;;29.70;99.90;;;;;;4987766;28;20218;-81
2023/06/29 08:54:57;;;;;;;6.28;4.30;;;30.00;99.90;;;;;;4978330;28;20473;-81
2023/06/29 08:57:47;;;;;;;4.65;4.25;;;30.20;99.90;;;;;;4993621;28;20227;-81
2023/06/29 09:00:37;;;;;;;4.68;4.28;;;30.60;99.20;;;;;;4981731;28;20238;-82
2023/06/29 09:03:28;;;;;;;5.65;4.50;;;29.50;97.30;;;;;;4986404;28;20243;-83
2023/06/29 09:06:19;;;;;;;7.97;4.70;;;29.10;99.90;;;;;;4994380;28;20230;-85
2023/06/29 09:09:09;;;;;;;6.00;4.63;;;29.60;99.40;;;;;;4978030;28;20244;-76
2023/06/29 09:12:00;;;;;;;6.60;4.53;;;30.10;98.20;;;;;;4979333;28;20218;-77
2023/06/29 09:14:49;;;;;;;6.15;4.80;;;29.90;97.70;;;;;;4977640;28;20234;-76
2023/06/29 09:17:44;;;;;;;4.15;3.75;;;30.40;97.20;;;;;;4982524;28;20356;-76
2023/06/29 09:20:34;;;;;;;6.97;4.78;;;30.00;97.40;;;;;;4988665;28;20446;-75
2023/06/29 09:23:27;;;;;;;8.82;4.82;;;30.60;97.70;;;;;;4968105;28;20226;-76
2023/06/29 09:26:18;;;;;;;8.30;4.78;;;31.00;95.80;;;;;;4981465;28;20790;-76
2023/06/29 09:29:07;;;;;;;5.10;4.70;;;31.30;95.70;;;;;;4982368;28;20590;-73
2023/06/29 09:31:56;;;;;;;4.97;4.47;;;31.70;94.30;;;;;;4982258;28;20226;-76
2023/06/29 09:34:47;;;;;;;6.30;4.47;;;31.50;92.80;;;;;;4974082;28;20226;-76
2023/06/29 09:37:37;;;;;;;7.47;4.55;;;31.80;93.70;;;;;;4980241;28;20227;-75
2023/06/29 09:40:28;;;;;;;6.90;4.63;;;32.00;92.30;;;;;;4969967;28;20357;-74
2023/06/29 09:43:17;;;;;;;8.18;4.75;;;32.60;91.40;;;;;;4977176;28;20227;-72
2023/06/29 09:46:08;;;;;;;5.30;4.75;;;32.10;92.00;;;;;;4977260;28;20234;-72
2023/06/29 09:48:59;;;;;;;6.32;4.30;;;32.90;90.90;;;;;;4981368;28;20215;-74
2023/06/29 09:52:03;;;;;;;4.38;3.67;;;33.60;88.50;;;;;;4969862;28;20218;-73
2023/06/29 09:54:58;;;;;;;6.47;4.00;;;34.90;85.70;;;;;;4985008;28;20225;-73
2023/06/29 09:57:50;;;;;;;4.05;3.75;;;35.70;79.70;;;;;;4978169;28;20226;-74
2023/06/29 10:00:45;;;;;;;5.90;3.70;;;34.90;83.10;;;;;;4980226;28;20226;-74
2023/06/29 10:03:34;;;;;;;3.63;3.20;;;34.90;82.40;;;;;;4986890;28;20261;-72
2023/06/29 10:06:31;;;;;;;6.05;3.40;;;36.80;78.50;;;;;;4973131;28;20230;-73
2023/06/29 10:09:23;;;;;;;6.78;3.20;;;35.40;73.50;;;;;;4962273;28;20237;-73
2023/06/29 10:12:12;;;;;;;4.15;3.53;;;34.40;74.20;;;;;;4976913;28;20242;-74
2023/06/29 10:15:09;;;;;;;4.20;3.30;;;33.00;78.50;;;;;;4980974;28;20234;-75
2023/06/29 10:18:05;;;;;;;4.00;3.60;;;34.80;75.30;;;;;;4971399;28;20417;-73
2023/06/29 10:20:54;;;;;;;4.30;3.53;;;35.10;71.30;;;;;;4973262;28;20226;-74
2023/06/29 10:23:45;;;;;;;6.82;3.58;;;37.20;69.70;;;;;;4979990;28;20238;-74
2023/06/29 10:26:35;;;;;;;4.68;3.67;;;38.70;68.00;;;;;;4979083;28;20233;-74
2023/06/29 10:29:23;;;;;;;4.65;3.28;;;39.70;66.20;;;;;;4977537;28;20226;-74
2023/06/29 10:32:31;;;;;;;3.83;3.53;;;39.80;63.00;;;;;;4975741;28;20995;-73
2023/06/29 10:35:24;;;;;;;3.90;3.60;;;36.50;66.40;;;;;;4966801;28;20313;-73
2023/06/29 10:38:15;;;;;;;3.80;3.25;;;37.10;67.00;;;;;;4977028;28;20230;-72
2023/06/29 10:41:07;;;;;;;3.60;3.30;;;38.50;62.90;;;;;;4987790;28;20249;-73
2023/06/29 10:44:00;;;;;;;4.38;3.30;;;40.60;60.90;;;;;;4981360;28;20361;-72
2023/06/29 10:46:49;;;;;;;8.00;3.80;;;41.40;59.60;;;;;;4969870;28;20785;-74
2023/06/29 10:49:40;;;;;;;5.40;3.20;;;42.10;57.40;;;;;;4975879;28;20227;-74
2023/06/29 10:52:33;;;;;;;3.55;3.25;;;42.60;55.80;;;;;;4980289;28;20249;-75
2023/06/29 10:55:25;;;;;;;7.20;3.75;;;40.90;56.00;;;;;;4982020;28;20358;-76
2023/06/29 10:58:18;;;;;;;5.97;3.70;;;40.90;53.90;;;;;;4975029;28;25391;-79
2023/06/29 11:01:07;;;;;;;6.53;3.45;;;39.60;54.60;;;;;;4980455;28;20232;-78
2023/06/29 11:03:56;;;;;;;6.55;3.88;;;37.90;58.20;;;;;;4979657;28;20222;-76
2023/06/29 11:06:46;;;;;;;3.80;3.50;;;39.50;56.10;;;;;;4993288;28;20280;-80
2023/06/29 11:09:36;;;;;;;3.90;3.55;;;40.00;54.30;;;;;;4980633;28;20701;-79
2023/06/29 11:12:25;;;;;;;3.78;3.47;;;41.40;56.00;;;;;;4976777;28;20373;-78
2023/06/29 11:15:15;;;;;;;6.55;3.47;;;42.50;54.20;;;;;;4981863;28;20259;-78
2023/06/29 11:18:09;;;;;;;5.78;3.97;;;43.40;52.70;;;;;;4989851;28;20249;-75
2023/06/29 11:21:01;;;;;;;4.82;3.67;;;43.30;52.70;;;;;;4982593;28;20268;-76
2023/06/29 11:23:53;;;;;;;3.97;3.63;;;39.90;53.00;;;;;;4993881;28;20229;-76
2023/06/29 11:26:43;;;;;;;4.30;3.90;;;41.40;53.90;;;;;;4985781;28;20218;-75
2023/06/29 11:29:32;;;;;;;4.05;3.58;;;42.20;51.70;;;;;;4978519;28;20238;-74
2023/06/29 11:32:21;;;;;;;4.30;3.78;;;43.80;49.40;;;;;;4976949;28;20249;-74
2023/06/29 11:35:12;;;;;;;4.32;3.90;;;44.90;50.00;;;;;;4979911;28;20219;-75
2023/06/29 11:38:02;;;;;;;7.30;3.58;;;41.30;49.40;;;;;;4980813;28;20245;-75
2023/06/29 11:41:03;;;;;;;3.65;3.17;;;39.50;53.40;;;;;;4979690;28;20369;-75
2023/06/29 11:43:52;;;;;;;3.55;3.25;;;43.80;50.40;;;;;;4975857;28;20754;-75
2023/06/29 11:46:41;;;;;;;5.43;3.45;;;46.20;47.60;;;;;;4990540;28;20300;-73
2023/06/29 11:49:29;;;;;;;9.93;5.25;;;45.80;46.70;;;;;;4984828;28;20234;-75
2023/06/29 11:52:18;;;;;;;5.90;3.28;;;47.60;45.90;;;;;;4981527;28;20223;-75
2023/06/29 11:55:09;;;;;;;5.88;3.25;;;48.50;44.80;;;;;;4984187;28;20213;-75
2023/06/29 11:58:01;;;;;;;4.38;2.90;;;48.70;42.90;;;;;;5000606;28;20231;-75
2023/06/29 12:00:56;;;;;;;6.05;3.10;;;48.80;43.00;;;;;;4984088;28;20224;-75
2023/06/29 12:03:47;;;;;;;4.15;3.20;;;50.50;40.90;;;;;;4980630;28;20249;-75
2023/06/29 12:06:36;;;;;;;4.85;2.80;;;51.50;39.90;;;;;;4966283;28;20219;-75
2023/06/29 12:09:29;;;;;;;3.42;2.90;;;51.80;39.40;;;;;;4963131;28;20700;-78
2023/06/29 12:12:22;;;;;;;2.83;2.50;;;51.20;37.50;;;;;;4973065;28;20242;-78
2023/06/29 12:15:17;;;;;;;4.18;2.95;;;47.60;39.10;;;;;;4984161;28;20219;-78
2023/06/29 12:18:13;;;;;;;3.13;2.83;;;47.90;39.80;;;;;;4981364;28;20234;-76
2023/06/29 12:21:03;;;;;;;2.70;2.50;;;48.50;40.70;;;;;;4995809;28;20237;-78
2023/06/29 12:23:52;;;;;;;2.97;2.38;;;50.40;40.20;;;;;;4987302;28;20214;-78
2023/06/29 12:26:41;;;;;;;3.83;2.60;;;49.10;38.60;;;;;;4978738;28;20229;-81
2023/06/29 12:29:30;;;;;;;3.78;2.85;;;45.20;39.60;;;;;;4968100;28;20227;-77
2023/06/29 12:32:20;;;;;;;4.90;4.03;;;45.80;43.90;;;;;;4983413;28;20226;-76
2023/06/29 12:35:10;;;;;;;4.07;3.05;;;49.80;40.60;;;;;;4982184;28;20785;-76
2023/06/29 12:38:02;;;;;;;3.88;2.78;;;50.60;38.70;;;;;;4982341;28;20322;-76
2023/06/29 12:40:51;;;;;;;3.40;2.50;;;50.60;38.10;;;;;;4992450;28;20219;-77
2023/06/29 12:43:40;;;;;;;3.20;2.33;;;49.10;37.60;;;;;;4977915;28;20226;-77
2023/06/29 12:46:29;;;;;;;2.88;2.58;;;48.30;38.30;;;;;;4974662;28;20227;-77
2023/06/29 12:49:23;;;;;;;4.13;2.33;;;49.10;39.20;;;;;;4991753;28;20310;-76
2023/06/29 12:52:16;;;;;;;4.45;2.53;;;49.60;38.50;;;;;;4983371;28;20249;-77
2023/06/29 12:55:05;;;;;;;6.22;3.08;;;50.10;38.00;;;;;;4999159;28;20267;-77
2023/06/29 12:57:54;;;;;;;3.10;2.58;;;48.30;39.10;;;;;;4979247;28;20609;-77
2023/06/29 13:00:43;;;;;;;4.40;2.78;;;43.10;41.80;;;;;;4977463;28;20395;-79
2023/06/29 13:03:32;;;;;;;4.95;3.10;;;38.70;46.20;;;;;;4971987;28;20229;-77
2023/06/29 13:06:23;;;;;;;3.10;2.90;;;36.50;49.90;;;;;;4970516;28;20317;-78
2023/06/29 13:09:12;;;;;;;4.75;3.38;;;34.90;53.10;;;;;;4979737;28;20230;-76
2023/06/29 13:12:06;;;;;;;5.28;3.10;;;33.90;54.50;;;;;;4985520;28;20226;-73
2023/06/29 13:14:58;;;;;;;3.92;2.90;;;33.20;55.30;;;;;;4982979;28;20230;-76
2023/06/29 13:17:48;;;;;;;4.00;3.00;;;32.50;55.90;;;;;;4983572;28;20306;-75
2023/06/29 13:20:37;;;;;;;4.07;3.67;;;31.80;58.20;;;;;;4972768;28;20348;-77
2023/06/29 13:23:27;;;;;;;5.38;3.30;;;31.60;58.90;;;;;;4962593;28;20265;-83
2023/06/29 13:26:16;;;;;;;7.35;3.50;;;31.20;59.30;;;;;;4986033;28;20219;-77
2023/06/29 13:29:05;;;;;;;3.60;3.30;;;30.80;59.80;;;;;;4985083;28;20755;-75
2023/06/29 13:31:54;;;;;;;5.38;3.85;;;30.80;60.70;;;;;;4979187;28;20242;-75
2023/06/29 13:34:43;;;;;;;5.97;3.38;;;30.70;61.90;;;;;;4987886;28;20579;-74
2023/06/29 13:37:32;;;;;;;5.07;3.60;;;30.50;62.00;;;;;;4990255;28;20258;-74
2023/06/29 13:40:22;;;;;;;9.15;4.03;;;30.50;62.40;;;;;;4982568;28;20239;-76
2023/06/29 13:43:11;;;;;;;5.65;3.65;;;30.30;62.60;;;;;;4991357;28;20301;-78
2023/06/29 13:46:01;;;;;;;27.25;4.63;;;30.30;64.00;;;;;;4984250;28;20829;-76
2023/06/29 13:48:49;;;;;;;6.25;4.10;;;30.20;63.90;;;;;;4978229;28;20285;-78
2023/06/29 13:51:38;;;;;;;7.05;3.70;;;29.90;63.70;;;;;;4995360;28;20233;-77
2023/06/29 13:54:27;;;;;;;7.35;3.85;;;29.80;63.40;;;;;;4970943;28;20219;-74
2023/06/29 13:57:17;;;;;;;3.72;3.30;;;29.70;65.50;;;;;;4982640;28;20230;-74
2023/06/29 14:00:07;;;;;;;6.18;3.97;;;29.60;64.90;;;;;;4978837;28;20234;-72
2023/06/29 14:02:57;;;;;;;11.15;4.05;;;29.30;65.80;;;;;;4975607;28;20317;-74
2023/06/29 14:05:47;;;;;;;4.35;3.28;;;29.30;65.60;;;;;;4987611;28;20743;-74
2023/06/29 14:08:36;;;;;;;5.72;3.42;;;29.20;66.70;;;;;;4976454;28;20318;-76
2023/06/29 14:11:25;;;;;;;5.38;3.80;;;28.80;66.50;;;;;;4979979;28;20218;-74
2023/06/29 14:14:16;;;;;;;11.57;3.97;;;28.70;66.60;;;;;;4976973;28;20229;-74
2023/06/29 14:17:05;;;;;;;9.77;4.80;;;28.30;71.10;;;;;;4978526;28;20235;-74
2023/06/29 14:19:55;;;;;;;11.15;5.22;;;28.10;87.60;;;;;;5001534;28;20722;-77
2023/06/29 14:22:44;;;;;;;9.38;5.00;;;27.10;97.30;;;;;;4980888;28;20245;-74
2023/06/29 14:25:33;;;;;;;7.07;5.38;;;26.50;99.90;;;;;;4971672;28;20389;-73
2023/06/29 14:28:21;;;;;;;5.38;4.50;;;26.00;99.90;;;;;;4993427;28;20221;-75
2023/06/29 14:31:12;;;;;;;5.85;5.10;;;25.90;99.90;;;;;;4965830;28;20242;-74
2023/06/29 14:34:02;;;;;;;10.45;5.40;;;25.50;99.90;;;;;;4975241;28;20229;-77
2023/06/29 14:36:51;;;;;;;11.07;5.07;;;25.60;99.90;;;;;;4975019;28;21181;-75
2023/06/29 14:39:40;;;;;;;6.55;5.05;;;25.80;99.90;;;;;;4970529;28;21100;-76
2023/06/29 14:42:28;;;;;;;5.85;5.03;;;25.80;99.90;;;;;;4980543;28;20229;-75